sensor_id;sensor_type;location;lat;lon;timestamp;pressure;altitude;pressure_sealevel;temperature;humidity
59588;BME280;45412;54.472;18.464;2023-05-29T00:01:11;100240.57;;;9.29;65.84
59588;BME280;45412;54.472;18.464;2023-05-29T00:03:59;100238.98;;;9.26;65.38
59588;BME280;45412;54.472;18.464;2023-05-29T00:06:47;100240.44;;;9.23;65.10
59588;BME280;45412;54.472;18.464;2023-05-29T00:09:36;100243.15;;;9.19;65.08
59588;BME280;45412;54.472;18.464;2023-05-29T00:12:25;100238.72;;;9.17;65.27
59588;BME280;45412;54.472;18.464;2023-05-29T00:15:13;100239.64;;;9.14;65.48
59588;BME280;45412;54.472;18.464;2023-05-29T00:18:01;100242.67;;;9.11;65.96
59588;BME280;45412;54.472;18.464;2023-05-29T00:20:49;100242.80;;;9.09;66.37
59588;BME280;45412;54.472;18.464;2023-05-29T00:23:38;100242.15;;;9.08;66.99
59588;BME280;45412;54.472;18.464;2023-05-29T00:26:28;100244.25;;;9.06;67.51
59588;BME280;45412;54.472;18.464;2023-05-29T00:29:17;100244.02;;;9.04;68.00
59588;BME280;45412;54.472;18.464;2023-05-29T00:32:06;100247.70;;;9.05;68.67
59588;BME280;45412;54.472;18.464;2023-05-29T00:34:55;100251.27;;;9.05;68.97
59588;BME280;45412;54.472;18.464;2023-05-29T00:37:44;100248.59;;;9.05;69.31
59588;BME280;45412;54.472;18.464;2023-05-29T00:40:34;100245.12;;;9.04;69.48
59588;BME280;45412;54.472;18.464;2023-05-29T00:43:23;100249.55;;;9.01;69.64
59588;BME280;45412;54.472;18.464;2023-05-29T00:46:14;100248.66;;;8.98;70.23
59588;BME280;45412;54.472;18.464;2023-05-29T00:49:05;100250.87;;;8.97;70.41
59588;BME280;45412;54.472;18.464;2023-05-29T00:51:55;100251.65;;;8.96;70.51
59588;BME280;45412;54.472;18.464;2023-05-29T00:54:46;100248.21;;;8.94;70.90
59588;BME280;45412;54.472;18.464;2023-05-29T00:57:35;100255.57;;;8.96;71.11
59588;BME280;45412;54.472;18.464;2023-05-29T01:00:25;-1.00;;;-128.00;-1.00
59588;BME280;45412;54.472;18.464;2023-05-29T01:03:14;-1.00;;;-128.00;-1.00
59588;BME280;45412;54.472;18.464;2023-05-29T01:06:06;-1.00;;;-128.00;-1.00
59588;BME280;45412;54.472;18.464;2023-05-29T01:08:55;-1.00;;;-128.00;-1.00
59588;BME280;45412;54.472;18.464;2023-05-29T01:12:40;-1.00;;;-128.00;-1.00
59588;BME280;45412;54.472;18.464;2023-05-29T01:15:54;-1.00;;;-128.00;-1.00
59588;BME280;45412;54.472;18.464;2023-05-29T01:28:40;-1.00;;;-128.00;-1.00
59588;BME280;45412;54.472;18.464;2023-05-29T01:31:30;-1.00;;;-128.00;-1.00
59588;BME280;45412;54.472;18.464;2023-05-29T01:34:19;-1.00;;;-128.00;-1.00
59588;BME280;45412;54.472;18.464;2023-05-29T01:37:07;-1.00;;;-128.00;-1.00
59588;BME280;45412;54.472;18.464;2023-05-29T01:39:56;-1.00;;;-128.00;-1.00
59588;BME280;45412;54.472;18.464;2023-05-29T01:42:45;-1.00;;;-128.00;-1.00
59588;BME280;45412;54.472;18.464;2023-05-29T01:45:35;-1.00;;;-128.00;-1.00
59588;BME280;45412;54.472;18.464;2023-05-29T01:48:25;-1.00;;;-128.00;-1.00
59588;BME280;45412;54.472;18.464;2023-05-29T01:51:16;-1.00;;;-128.00;-1.00
59588;BME280;45412;54.472;18.464;2023-05-29T01:54:07;-1.00;;;-128.00;-1.00
59588;BME280;45412;54.472;18.464;2023-05-29T01:56:55;-1.00;;;-128.00;-1.00
59588;BME280;45412;54.472;18.464;2023-05-29T01:59:44;-1.00;;;-128.00;-1.00
59588;BME280;45412;54.472;18.464;2023-05-29T02:02:37;-1.00;;;-128.00;-1.00
59588;BME280;45412;54.472;18.464;2023-05-29T02:05:25;-1.00;;;-128.00;-1.00
59588;BME280;45412;54.472;18.464;2023-05-29T02:08:13;-1.00;;;-128.00;-1.00
59588;BME280;45412;54.472;18.464;2023-05-29T02:11:04;-1.00;;;-128.00;-1.00
59588;BME280;45412;54.472;18.464;2023-05-29T02:13:52;-1.00;;;-128.00;-1.00
59588;BME280;45412;54.472;18.464;2023-05-29T02:16:42;-1.00;;;-128.00;-1.00
59588;BME280;45412;54.472;18.464;2023-05-29T02:19:32;-1.00;;;-128.00;-1.00
59588;BME280;45412;54.472;18.464;2023-05-29T02:22:20;-1.00;;;-128.00;-1.00
59588;BME280;45412;54.472;18.464;2023-05-29T02:25:08;-1.00;;;-128.00;-1.00
59588;BME280;45412;54.472;18.464;2023-05-29T02:27:56;-1.00;;;-128.00;-1.00
59588;BME280;45412;54.472;18.464;2023-05-29T02:30:45;-1.00;;;-128.00;-1.00
59588;BME280;45412;54.472;18.464;2023-05-29T02:33:33;-1.00;;;-128.00;-1.00
59588;BME280;45412;54.472;18.464;2023-05-29T02:36:22;-1.00;;;-128.00;-1.00
59588;BME280;45412;54.472;18.464;2023-05-29T02:39:10;-1.00;;;-128.00;-1.00
59588;BME280;45412;54.472;18.464;2023-05-29T02:41:59;-1.00;;;-128.00;-1.00
59588;BME280;45412;54.472;18.464;2023-05-29T02:44:47;-1.00;;;-128.00;-1.00
59588;BME280;45412;54.472;18.464;2023-05-29T02:47:38;-1.00;;;-128.00;-1.00
59588;BME280;45412;54.472;18.464;2023-05-29T02:50:27;-1.00;;;-128.00;-1.00
59588;BME280;45412;54.472;18.464;2023-05-29T02:53:16;-1.00;;;-128.00;-1.00
59588;BME280;45412;54.472;18.464;2023-05-29T02:56:05;-1.00;;;-128.00;-1.00
59588;BME280;45412;54.472;18.464;2023-05-29T02:58:54;-1.00;;;-128.00;-1.00
59588;BME280;45412;54.472;18.464;2023-05-29T03:01:42;-1.00;;;-128.00;-1.00
59588;BME280;45412;54.472;18.464;2023-05-29T03:04:31;-1.00;;;-128.00;-1.00
59588;BME280;45412;54.472;18.464;2023-05-29T03:07:20;-1.00;;;-128.00;-1.00
59588;BME280;45412;54.472;18.464;2023-05-29T03:10:09;-1.00;;;-128.00;-1.00
59588;BME280;45412;54.472;18.464;2023-05-29T03:12:57;-1.00;;;-128.00;-1.00
59588;BME280;45412;54.472;18.464;2023-05-29T03:15:46;-1.00;;;-128.00;-1.00
59588;BME280;45412;54.472;18.464;2023-05-29T03:18:36;-1.00;;;-128.00;-1.00
59588;BME280;45412;54.472;18.464;2023-05-29T03:21:23;-1.00;;;-128.00;-1.00
59588;BME280;45412;54.472;18.464;2023-05-29T03:24:12;-1.00;;;-128.00;-1.00
59588;BME280;45412;54.472;18.464;2023-05-29T03:27:04;-1.00;;;-128.00;-1.00
59588;BME280;45412;54.472;18.464;2023-05-29T03:29:53;-1.00;;;-128.00;-1.00
59588;BME280;45412;54.472;18.464;2023-05-29T03:32:43;-1.00;;;-128.00;-1.00
59588;BME280;45412;54.472;18.464;2023-05-29T03:35:33;-1.00;;;-128.00;-1.00
59588;BME280;45412;54.472;18.464;2023-05-29T03:38:23;-1.00;;;-128.00;-1.00
59588;BME280;45412;54.472;18.464;2023-05-29T03:41:14;-1.00;;;-128.00;-1.00
59588;BME280;45412;54.472;18.464;2023-05-29T03:44:03;-1.00;;;-128.00;-1.00
59588;BME280;45412;54.472;18.464;2023-05-29T03:46:51;-1.00;;;-128.00;-1.00
59588;BME280;45412;54.472;18.464;2023-05-29T03:49:39;-1.00;;;-128.00;-1.00
59588;BME280;45412;54.472;18.464;2023-05-29T03:52:28;-1.00;;;-128.00;-1.00
59588;BME280;45412;54.472;18.464;2023-05-29T03:55:16;-1.00;;;-128.00;-1.00
59588;BME280;45412;54.472;18.464;2023-05-29T03:58:06;-1.00;;;-128.00;-1.00
59588;BME280;45412;54.472;18.464;2023-05-29T04:00:54;-1.00;;;-128.00;-1.00
59588;BME280;45412;54.472;18.464;2023-05-29T04:03:43;-1.00;;;-128.00;-1.00
59588;BME280;45412;54.472;18.464;2023-05-29T04:06:34;-1.00;;;-128.00;-1.00
59588;BME280;45412;54.472;18.464;2023-05-29T04:09:26;-1.00;;;-128.00;-1.00
59588;BME280;45412;54.472;18.464;2023-05-29T04:12:15;-1.00;;;-128.00;-1.00
59588;BME280;45412;54.472;18.464;2023-05-29T04:15:05;-1.00;;;-128.00;-1.00
59588;BME280;45412;54.472;18.464;2023-05-29T04:17:54;-1.00;;;-128.00;-1.00
59588;BME280;45412;54.472;18.464;2023-05-29T04:20:43;-1.00;;;-128.00;-1.00
59588;BME280;45412;54.472;18.464;2023-05-29T04:23:35;-1.00;;;-128.00;-1.00
59588;BME280;45412;54.472;18.464;2023-05-29T04:26:23;-1.00;;;-128.00;-1.00
59588;BME280;45412;54.472;18.464;2023-05-29T04:29:15;-1.00;;;-128.00;-1.00
59588;BME280;45412;54.472;18.464;2023-05-29T04:32:05;-1.00;;;-128.00;-1.00
59588;BME280;45412;54.472;18.464;2023-05-29T04:34:54;-1.00;;;-128.00;-1.00
59588;BME280;45412;54.472;18.464;2023-05-29T04:37:42;-1.00;;;-128.00;-1.00
59588;BME280;45412;54.472;18.464;2023-05-29T04:40:32;-1.00;;;-128.00;-1.00
59588;BME280;45412;54.472;18.464;2023-05-29T04:43:22;-1.00;;;-128.00;-1.00
59588;BME280;45412;54.472;18.464;2023-05-29T04:46:17;-1.00;;;-128.00;-1.00
59588;BME280;45412;54.472;18.464;2023-05-29T04:49:06;-1.00;;;-128.00;-1.00
59588;BME280;45412;54.472;18.464;2023-05-29T04:51:54;-1.00;;;-128.00;-1.00
59588;BME280;45412;54.472;18.464;2023-05-29T04:54:44;-1.00;;;-128.00;-1.00
59588;BME280;45412;54.472;18.464;2023-05-29T04:57:33;-1.00;;;-128.00;-1.00
59588;BME280;45412;54.472;18.464;2023-05-29T05:00:21;-1.00;;;-128.00;-1.00
59588;BME280;45412;54.472;18.464;2023-05-29T05:03:10;-1.00;;;-128.00;-1.00
59588;BME280;45412;54.472;18.464;2023-05-29T05:06:00;-1.00;;;-128.00;-1.00
59588;BME280;45412;54.472;18.464;2023-05-29T05:08:52;-1.00;;;-128.00;-1.00
59588;BME280;45412;54.472;18.464;2023-05-29T05:11:40;-1.00;;;-128.00;-1.00
59588;BME280;45412;54.472;18.464;2023-05-29T05:14:30;-1.00;;;-128.00;-1.00
59588;BME280;45412;54.472;18.464;2023-05-29T05:17:18;-1.00;;;-128.00;-1.00
59588;BME280;45412;54.472;18.464;2023-05-29T05:20:06;-1.00;;;-128.00;-1.00
59588;BME280;45412;54.472;18.464;2023-05-29T05:22:57;-1.00;;;-128.00;-1.00
59588;BME280;45412;54.472;18.464;2023-05-29T05:25:46;-1.00;;;-128.00;-1.00
59588;BME280;45412;54.472;18.464;2023-05-29T05:28:34;-1.00;;;-128.00;-1.00
59588;BME280;45412;54.472;18.464;2023-05-29T05:31:24;-1.00;;;-128.00;-1.00
59588;BME280;45412;54.472;18.464;2023-05-29T05:34:13;-1.00;;;-128.00;-1.00
59588;BME280;45412;54.472;18.464;2023-05-29T05:37:03;-1.00;;;-128.00;-1.00
59588;BME280;45412;54.472;18.464;2023-05-29T05:39:53;-1.00;;;-128.00;-1.00
59588;BME280;45412;54.472;18.464;2023-05-29T05:42:42;-1.00;;;-128.00;-1.00
59588;BME280;45412;54.472;18.464;2023-05-29T05:45:31;-1.00;;;-128.00;-1.00
59588;BME280;45412;54.472;18.464;2023-05-29T05:48:19;-1.00;;;-128.00;-1.00
59588;BME280;45412;54.472;18.464;2023-05-29T05:51:08;-1.00;;;-128.00;-1.00
59588;BME280;45412;54.472;18.464;2023-05-29T05:53:58;-1.00;;;-128.00;-1.00
59588;BME280;45412;54.472;18.464;2023-05-29T05:56:46;-1.00;;;-128.00;-1.00
59588;BME280;45412;54.472;18.464;2023-05-29T05:59:35;-1.00;;;-128.00;-1.00
59588;BME280;45412;54.472;18.464;2023-05-29T06:02:24;-1.00;;;-128.00;-1.00
59588;BME280;45412;54.472;18.464;2023-05-29T06:05:12;-1.00;;;-128.00;-1.00
59588;BME280;45412;54.472;18.464;2023-05-29T06:08:02;-1.00;;;-128.00;-1.00
59588;BME280;45412;54.472;18.464;2023-05-29T06:10:50;-1.00;;;-128.00;-1.00
59588;BME280;45412;54.472;18.464;2023-05-29T06:13:39;-1.00;;;-128.00;-1.00
59588;BME280;45412;54.472;18.464;2023-05-29T06:16:36;-1.00;;;-128.00;-1.00
59588;BME280;45412;54.472;18.464;2023-05-29T06:19:24;-1.00;;;-128.00;-1.00
59588;BME280;45412;54.472;18.464;2023-05-29T06:22:19;-1.00;;;-128.00;-1.00
59588;BME280;45412;54.472;18.464;2023-05-29T06:25:07;-1.00;;;-128.00;-1.00
59588;BME280;45412;54.472;18.464;2023-05-29T06:27:58;-1.00;;;-128.00;-1.00
59588;BME280;45412;54.472;18.464;2023-05-29T06:30:46;-1.00;;;-128.00;-1.00
59588;BME280;45412;54.472;18.464;2023-05-29T06:33:36;-1.00;;;-128.00;-1.00
59588;BME280;45412;54.472;18.464;2023-05-29T06:36:25;-1.00;;;-128.00;-1.00
59588;BME280;45412;54.472;18.464;2023-05-29T06:39:14;-1.00;;;-128.00;-1.00
59588;BME280;45412;54.472;18.464;2023-05-29T06:42:05;-1.00;;;-128.00;-1.00
59588;BME280;45412;54.472;18.464;2023-05-29T06:45:01;-1.00;;;-128.00;-1.00
59588;BME280;45412;54.472;18.464;2023-05-29T06:47:49;-1.00;;;-128.00;-1.00
59588;BME280;45412;54.472;18.464;2023-05-29T06:50:38;-1.00;;;-128.00;-1.00
59588;BME280;45412;54.472;18.464;2023-05-29T06:53:46;-1.00;;;-128.00;-1.00
59588;BME280;45412;54.472;18.464;2023-05-29T06:56:35;-1.00;;;-128.00;-1.00
59588;BME280;45412;54.472;18.464;2023-05-29T06:59:23;-1.00;;;-128.00;-1.00
59588;BME280;45412;54.472;18.464;2023-05-29T07:02:12;-1.00;;;-128.00;-1.00
59588;BME280;45412;54.472;18.464;2023-05-29T07:05:00;-1.00;;;-128.00;-1.00
59588;BME280;45412;54.472;18.464;2023-05-29T07:07:49;-1.00;;;-128.00;-1.00
59588;BME280;45412;54.472;18.464;2023-05-29T07:10:37;-1.00;;;-128.00;-1.00
59588;BME280;45412;54.472;18.464;2023-05-29T07:13:26;-1.00;;;-128.00;-1.00
59588;BME280;45412;54.472;18.464;2023-05-29T07:16:15;-1.00;;;-128.00;-1.00
59588;BME280;45412;54.472;18.464;2023-05-29T07:19:24;-1.00;;;-128.00;-1.00
59588;BME280;45412;54.472;18.464;2023-05-29T07:22:13;-1.00;;;-128.00;-1.00
59588;BME280;45412;54.472;18.464;2023-05-29T07:25:03;-1.00;;;-128.00;-1.00
59588;BME280;45412;54.472;18.464;2023-05-29T07:27:52;-1.00;;;-128.00;-1.00
59588;BME280;45412;54.472;18.464;2023-05-29T07:30:40;-1.00;;;-128.00;-1.00
59588;BME280;45412;54.472;18.464;2023-05-29T07:33:28;-1.00;;;-128.00;-1.00
59588;BME280;45412;54.472;18.464;2023-05-29T07:36:17;-1.00;;;-128.00;-1.00
59588;BME280;45412;54.472;18.464;2023-05-29T07:39:07;-1.00;;;-128.00;-1.00
59588;BME280;45412;54.472;18.464;2023-05-29T07:41:55;-1.00;;;-128.00;-1.00
59588;BME280;45412;54.472;18.464;2023-05-29T07:44:44;-1.00;;;-128.00;-1.00
59588;BME280;45412;54.472;18.464;2023-05-29T07:47:33;-1.00;;;-128.00;-1.00
59588;BME280;45412;54.472;18.464;2023-05-29T07:50:24;-1.00;;;-128.00;-1.00
59588;BME280;45412;54.472;18.464;2023-05-29T07:53:13;-1.00;;;-128.00;-1.00
59588;BME280;45412;54.472;18.464;2023-05-29T07:56:02;-1.00;;;-128.00;-1.00
59588;BME280;45412;54.472;18.464;2023-05-29T07:58:52;-1.00;;;-128.00;-1.00
59588;BME280;45412;54.472;18.464;2023-05-29T08:01:43;-1.00;;;-128.00;-1.00
59588;BME280;45412;54.472;18.464;2023-05-29T08:04:33;-1.00;;;-128.00;-1.00
59588;BME280;45412;54.472;18.464;2023-05-29T08:07:23;-1.00;;;-128.00;-1.00
59588;BME280;45412;54.472;18.464;2023-05-29T08:10:11;-1.00;;;-128.00;-1.00
59588;BME280;45412;54.472;18.464;2023-05-29T08:12:59;-1.00;;;-128.00;-1.00
59588;BME280;45412;54.472;18.464;2023-05-29T08:15:47;-1.00;;;-128.00;-1.00
59588;BME280;45412;54.472;18.464;2023-05-29T08:18:36;-1.00;;;-128.00;-1.00
59588;BME280;45412;54.472;18.464;2023-05-29T08:21:24;-1.00;;;-128.00;-1.00
59588;BME280;45412;54.472;18.464;2023-05-29T08:24:13;-1.00;;;-128.00;-1.00
59588;BME280;45412;54.472;18.464;2023-05-29T08:27:03;-1.00;;;-128.00;-1.00
59588;BME280;45412;54.472;18.464;2023-05-29T08:29:52;-1.00;;;-128.00;-1.00
59588;BME280;45412;54.472;18.464;2023-05-29T08:32:42;-1.00;;;-128.00;-1.00
59588;BME280;45412;54.472;18.464;2023-05-29T08:35:30;-1.00;;;-128.00;-1.00
59588;BME280;45412;54.472;18.464;2023-05-29T08:38:18;-1.00;;;-128.00;-1.00
59588;BME280;45412;54.472;18.464;2023-05-29T08:41:13;-1.00;;;-128.00;-1.00
59588;BME280;45412;54.472;18.464;2023-05-29T08:44:06;-1.00;;;-128.00;-1.00
59588;BME280;45412;54.472;18.464;2023-05-29T08:46:57;-1.00;;;-128.00;-1.00
59588;BME280;45412;54.472;18.464;2023-05-29T08:49:53;-1.00;;;-128.00;-1.00
59588;BME280;45412;54.472;18.464;2023-05-29T08:52:41;-1.00;;;-128.00;-1.00
59588;BME280;45412;54.472;18.464;2023-05-29T08:55:29;-1.00;;;-128.00;-1.00
59588;BME280;45412;54.472;18.464;2023-05-29T08:58:19;-1.00;;;-128.00;-1.00
59588;BME280;45412;54.472;18.464;2023-05-29T09:01:11;-1.00;;;-128.00;-1.00
59588;BME280;45412;54.472;18.464;2023-05-29T09:04:00;-1.00;;;-128.00;-1.00
59588;BME280;45412;54.472;18.464;2023-05-29T09:06:51;-1.00;;;-128.00;-1.00
59588;BME280;45412;54.472;18.464;2023-05-29T09:09:44;-1.00;;;-128.00;-1.00
59588;BME280;45412;54.472;18.464;2023-05-29T09:12:34;-1.00;;;-128.00;-1.00
59588;BME280;45412;54.472;18.464;2023-05-29T09:15:23;-1.00;;;-128.00;-1.00
59588;BME280;45412;54.472;18.464;2023-05-29T09:18:12;-1.00;;;-128.00;-1.00
59588;BME280;45412;54.472;18.464;2023-05-29T09:21:07;-1.00;;;-128.00;-1.00
59588;BME280;45412;54.472;18.464;2023-05-29T09:24:04;-1.00;;;-128.00;-1.00
59588;BME280;45412;54.472;18.464;2023-05-29T09:26:53;-1.00;;;-128.00;-1.00
59588;BME280;45412;54.472;18.464;2023-05-29T09:29:44;-1.00;;;-128.00;-1.00
59588;BME280;45412;54.472;18.464;2023-05-29T09:32:33;-1.00;;;-128.00;-1.00
59588;BME280;45412;54.472;18.464;2023-05-29T09:35:22;-1.00;;;-128.00;-1.00
59588;BME280;45412;54.472;18.464;2023-05-29T09:38:15;-1.00;;;-128.00;-1.00
59588;BME280;45412;54.472;18.464;2023-05-29T09:41:23;-1.00;;;-128.00;-1.00
59588;BME280;45412;54.472;18.464;2023-05-29T09:44:13;-1.00;;;-128.00;-1.00
59588;BME280;45412;54.472;18.464;2023-05-29T09:47:02;-1.00;;;-128.00;-1.00
59588;BME280;45412;54.472;18.464;2023-05-29T09:49:52;-1.00;;;-128.00;-1.00
59588;BME280;45412;54.472;18.464;2023-05-29T09:52:41;-1.00;;;-128.00;-1.00
59588;BME280;45412;54.472;18.464;2023-05-29T09:55:31;-1.00;;;-128.00;-1.00
59588;BME280;45412;54.472;18.464;2023-05-29T09:58:22;-1.00;;;-128.00;-1.00
59588;BME280;45412;54.472;18.464;2023-05-29T10:01:15;-1.00;;;-128.00;-1.00
59588;BME280;45412;54.472;18.464;2023-05-29T10:04:04;-1.00;;;-128.00;-1.00
59588;BME280;45412;54.472;18.464;2023-05-29T10:06:55;-1.00;;;-128.00;-1.00
59588;BME280;45412;54.472;18.464;2023-05-29T10:09:47;-1.00;;;-128.00;-1.00
59588;BME280;45412;54.472;18.464;2023-05-29T10:12:49;-1.00;;;-128.00;-1.00
59588;BME280;45412;54.472;18.464;2023-05-29T10:15:41;-1.00;;;-128.00;-1.00
59588;BME280;45412;54.472;18.464;2023-05-29T10:18:55;-1.00;;;-128.00;-1.00
59588;BME280;45412;54.472;18.464;2023-05-29T10:21:44;-1.00;;;-128.00;-1.00
59588;BME280;45412;54.472;18.464;2023-05-29T10:24:33;-1.00;;;-128.00;-1.00
59588;BME280;45412;54.472;18.464;2023-05-29T10:27:26;-1.00;;;-128.00;-1.00
59588;BME280;45412;54.472;18.464;2023-05-29T10:30:43;-1.00;;;-128.00;-1.00
59588;BME280;45412;54.472;18.464;2023-05-29T10:34:29;-1.00;;;-128.00;-1.00
59588;BME280;45412;54.472;18.464;2023-05-29T10:38:08;-1.00;;;-128.00;-1.00
59588;BME280;45412;54.472;18.464;2023-05-29T10:47:24;-1.00;;;-128.00;-1.00
59588;BME280;45412;54.472;18.464;2023-05-29T10:50:38;-1.00;;;-128.00;-1.00
59588;BME280;45412;54.472;18.464;2023-05-29T10:53:31;-1.00;;;-128.00;-1.00
59588;BME280;45412;54.472;18.464;2023-05-29T10:56:28;-1.00;;;-128.00;-1.00
59588;BME280;45412;54.472;18.464;2023-05-29T10:59:17;-1.00;;;-128.00;-1.00
59588;BME280;45412;54.472;18.464;2023-05-29T11:02:05;-1.00;;;-128.00;-1.00
59588;BME280;45412;54.472;18.464;2023-05-29T11:05:26;-1.00;;;-128.00;-1.00
59588;BME280;45412;54.472;18.464;2023-05-29T11:08:15;-1.00;;;-128.00;-1.00
59588;BME280;45412;54.472;18.464;2023-05-29T11:11:03;-1.00;;;-128.00;-1.00
59588;BME280;45412;54.472;18.464;2023-05-29T11:13:55;-1.00;;;-128.00;-1.00
59588;BME280;45412;54.472;18.464;2023-05-29T11:16:44;-1.00;;;-128.00;-1.00
59588;BME280;45412;54.472;18.464;2023-05-29T11:19:32;-1.00;;;-128.00;-1.00
59588;BME280;45412;54.472;18.464;2023-05-29T11:22:27;-1.00;;;-128.00;-1.00
59588;BME280;45412;54.472;18.464;2023-05-29T11:25:20;-1.00;;;-128.00;-1.00
59588;BME280;45412;54.472;18.464;2023-05-29T11:28:08;-1.00;;;-128.00;-1.00
59588;BME280;45412;54.472;18.464;2023-05-29T11:30:59;-1.00;;;-128.00;-1.00
59588;BME280;45412;54.472;18.464;2023-05-29T11:33:54;-1.00;;;-128.00;-1.00
59588;BME280;45412;54.472;18.464;2023-05-29T11:36:42;-1.00;;;-128.00;-1.00
59588;BME280;45412;54.472;18.464;2023-05-29T11:39:36;-1.00;;;-128.00;-1.00
59588;BME280;45412;54.472;18.464;2023-05-29T11:42:25;-1.00;;;-128.00;-1.00
59588;BME280;45412;54.472;18.464;2023-05-29T11:45:15;-1.00;;;-128.00;-1.00
59588;BME280;45412;54.472;18.464;2023-05-29T11:48:03;-1.00;;;-128.00;-1.00
59588;BME280;45412;54.472;18.464;2023-05-29T11:50:52;-1.00;;;-128.00;-1.00
59588;BME280;45412;54.472;18.464;2023-05-29T11:53:42;-1.00;;;-128.00;-1.00
59588;BME280;45412;54.472;18.464;2023-05-29T11:56:31;-1.00;;;-128.00;-1.00
59588;BME280;45412;54.472;18.464;2023-05-29T11:59:19;-1.00;;;-128.00;-1.00
59588;BME280;45412;54.472;18.464;2023-05-29T12:02:07;-1.00;;;-128.00;-1.00
59588;BME280;45412;54.472;18.464;2023-05-29T12:05:01;-1.00;;;-128.00;-1.00
59588;BME280;45412;54.472;18.464;2023-05-29T12:07:53;-1.00;;;-128.00;-1.00
59588;BME280;45412;54.472;18.464;2023-05-29T12:10:49;-1.00;;;-128.00;-1.00
59588;BME280;45412;54.472;18.464;2023-05-29T12:13:38;-1.00;;;-128.00;-1.00
59588;BME280;45412;54.472;18.464;2023-05-29T12:16:28;-1.00;;;-128.00;-1.00
59588;BME280;45412;54.472;18.464;2023-05-29T12:19:19;-1.00;;;-128.00;-1.00
59588;BME280;45412;54.472;18.464;2023-05-29T12:22:07;-1.00;;;-128.00;-1.00
59588;BME280;45412;54.472;18.464;2023-05-29T12:24:55;-1.00;;;-128.00;-1.00
59588;BME280;45412;54.472;18.464;2023-05-29T12:27:48;-1.00;;;-128.00;-1.00
59588;BME280;45412;54.472;18.464;2023-05-29T12:30:39;-1.00;;;-128.00;-1.00
59588;BME280;45412;54.472;18.464;2023-05-29T12:33:32;-1.00;;;-128.00;-1.00
59588;BME280;45412;54.472;18.464;2023-05-29T12:36:25;-1.00;;;-128.00;-1.00
59588;BME280;45412;54.472;18.464;2023-05-29T12:39:14;-1.00;;;-128.00;-1.00
59588;BME280;45412;54.472;18.464;2023-05-29T12:42:02;-1.00;;;-128.00;-1.00
59588;BME280;45412;54.472;18.464;2023-05-29T12:44:50;-1.00;;;-128.00;-1.00
59588;BME280;45412;54.472;18.464;2023-05-29T12:48:04;-1.00;;;-128.00;-1.00
59588;BME280;45412;54.472;18.464;2023-05-29T12:51:12;-1.00;;;-128.00;-1.00
59588;BME280;45412;54.472;18.464;2023-05-29T12:54:01;-1.00;;;-128.00;-1.00
59588;BME280;45412;54.472;18.464;2023-05-29T12:56:52;-1.00;;;-128.00;-1.00
59588;BME280;45412;54.472;18.464;2023-05-29T12:59:40;-1.00;;;-128.00;-1.00
59588;BME280;45412;54.472;18.464;2023-05-29T13:02:29;-1.00;;;-128.00;-1.00
59588;BME280;45412;54.472;18.464;2023-05-29T13:05:18;-1.00;;;-128.00;-1.00
59588;BME280;45412;54.472;18.464;2023-05-29T13:08:07;-1.00;;;-128.00;-1.00
59588;BME280;45412;54.472;18.464;2023-05-29T13:10:56;-1.00;;;-128.00;-1.00
59588;BME280;45412;54.472;18.464;2023-05-29T13:13:44;-1.00;;;-128.00;-1.00
59588;BME280;45412;54.472;18.464;2023-05-29T13:16:33;-1.00;;;-128.00;-1.00
59588;BME280;45412;54.472;18.464;2023-05-29T13:19:24;-1.00;;;-128.00;-1.00
59588;BME280;45412;54.472;18.464;2023-05-29T13:22:13;-1.00;;;-128.00;-1.00
59588;BME280;45412;54.472;18.464;2023-05-29T13:25:01;-1.00;;;-128.00;-1.00
59588;BME280;45412;54.472;18.464;2023-05-29T13:27:50;-1.00;;;-128.00;-1.00
59588;BME280;45412;54.472;18.464;2023-05-29T13:30:39;-1.00;;;-128.00;-1.00
59588;BME280;45412;54.472;18.464;2023-05-29T13:33:28;-1.00;;;-128.00;-1.00
59588;BME280;45412;54.472;18.464;2023-05-29T13:36:17;-1.00;;;-128.00;-1.00
59588;BME280;45412;54.472;18.464;2023-05-29T13:39:06;-1.00;;;-128.00;-1.00
59588;BME280;45412;54.472;18.464;2023-05-29T13:41:55;-1.00;;;-128.00;-1.00
59588;BME280;45412;54.472;18.464;2023-05-29T13:44:44;-1.00;;;-128.00;-1.00
59588;BME280;45412;54.472;18.464;2023-05-29T13:47:35;-1.00;;;-128.00;-1.00
59588;BME280;45412;54.472;18.464;2023-05-29T13:50:24;-1.00;;;-128.00;-1.00
59588;BME280;45412;54.472;18.464;2023-05-29T13:53:12;-1.00;;;-128.00;-1.00
59588;BME280;45412;54.472;18.464;2023-05-29T13:56:00;-1.00;;;-128.00;-1.00
59588;BME280;45412;54.472;18.464;2023-05-29T13:58:49;-1.00;;;-128.00;-1.00
59588;BME280;45412;54.472;18.464;2023-05-29T14:01:37;-1.00;;;-128.00;-1.00
59588;BME280;45412;54.472;18.464;2023-05-29T14:04:26;-1.00;;;-128.00;-1.00
59588;BME280;45412;54.472;18.464;2023-05-29T14:07:15;-1.00;;;-128.00;-1.00
59588;BME280;45412;54.472;18.464;2023-05-29T14:10:04;-1.00;;;-128.00;-1.00
59588;BME280;45412;54.472;18.464;2023-05-29T14:12:53;-1.00;;;-128.00;-1.00
59588;BME280;45412;54.472;18.464;2023-05-29T14:15:42;-1.00;;;-128.00;-1.00
59588;BME280;45412;54.472;18.464;2023-05-29T14:18:30;-1.00;;;-128.00;-1.00
59588;BME280;45412;54.472;18.464;2023-05-29T14:21:18;-1.00;;;-128.00;-1.00
59588;BME280;45412;54.472;18.464;2023-05-29T14:24:08;-1.00;;;-128.00;-1.00
59588;BME280;45412;54.472;18.464;2023-05-29T14:26:58;-1.00;;;-128.00;-1.00
59588;BME280;45412;54.472;18.464;2023-05-29T14:29:48;-1.00;;;-128.00;-1.00
59588;BME280;45412;54.472;18.464;2023-05-29T14:32:37;-1.00;;;-128.00;-1.00
59588;BME280;45412;54.472;18.464;2023-05-29T14:35:26;-1.00;;;-128.00;-1.00
59588;BME280;45412;54.472;18.464;2023-05-29T14:38:15;-1.00;;;-128.00;-1.00
59588;BME280;45412;54.472;18.464;2023-05-29T14:41:05;-1.00;;;-128.00;-1.00
59588;BME280;45412;54.472;18.464;2023-05-29T14:43:56;-1.00;;;-128.00;-1.00
59588;BME280;45412;54.472;18.464;2023-05-29T14:46:46;-1.00;;;-128.00;-1.00
59588;BME280;45412;54.472;18.464;2023-05-29T14:49:34;-1.00;;;-128.00;-1.00
59588;BME280;45412;54.472;18.464;2023-05-29T14:52:22;-1.00;;;-128.00;-1.00
59588;BME280;45412;54.472;18.464;2023-05-29T14:55:11;-1.00;;;-128.00;-1.00
59588;BME280;45412;54.472;18.464;2023-05-29T14:57:59;-1.00;;;-128.00;-1.00
59588;BME280;45412;54.472;18.464;2023-05-29T15:00:48;-1.00;;;-128.00;-1.00
59588;BME280;45412;54.472;18.464;2023-05-29T15:03:36;-1.00;;;-128.00;-1.00
59588;BME280;45412;54.472;18.464;2023-05-29T15:06:25;-1.00;;;-128.00;-1.00
59588;BME280;45412;54.472;18.464;2023-05-29T15:09:13;-1.00;;;-128.00;-1.00
59588;BME280;45412;54.472;18.464;2023-05-29T15:12:02;-1.00;;;-128.00;-1.00
59588;BME280;45412;54.472;18.464;2023-05-29T15:14:50;-1.00;;;-128.00;-1.00
59588;BME280;45412;54.472;18.464;2023-05-29T15:17:39;-1.00;;;-128.00;-1.00
59588;BME280;45412;54.472;18.464;2023-05-29T15:20:28;-1.00;;;-128.00;-1.00